createdAt,value
2022-09-15T00:04:15.481Z,15.30
2022-09-15T00:14:19.028Z,15.30
2022-09-15T00:24:20.944Z,15.20
2022-09-15T00:34:24.255Z,15.10
2022-09-15T00:44:46.476Z,15.10
2022-09-15T00:54:54.524Z,15.00
2022-09-15T01:04:58.764Z,14.90
2022-09-15T01:15:02.505Z,14.70
2022-09-15T01:25:09.662Z,14.60
2022-09-15T01:35:24.360Z,14.50
2022-09-15T01:45:31.128Z,14.40
2022-09-15T01:55:39.629Z,14.30
2022-09-15T02:05:45.016Z,14.20
2022-09-15T02:15:50.989Z,14.00
2022-09-15T02:25:57.058Z,14.00
2022-09-15T02:36:00.735Z,13.80
2022-09-15T02:46:02.897Z,13.80
2022-09-15T02:56:06.909Z,13.70
2022-09-15T03:06:09.234Z,13.50
2022-09-15T03:16:14.420Z,13.30
2022-09-15T03:26:16.395Z,13.30
2022-09-15T03:36:19.670Z,13.30
2022-09-15T03:46:21.612Z,13.30
2022-09-15T03:56:27.253Z,13.30
2022-09-15T04:06:29.172Z,13.20
2022-09-15T04:16:32.561Z,13.20
2022-09-15T04:26:36.710Z,13.10
2022-09-15T04:36:40.265Z,13.00
2022-09-15T04:46:42.287Z,12.90
2022-09-15T04:56:45.794Z,13.00
2022-09-15T05:06:47.947Z,13.00
2022-09-15T05:16:51.297Z,13.00
2022-09-15T05:26:53.273Z,12.80
2022-09-15T05:36:57.065Z,13.00
2022-09-15T05:46:59.089Z,13.00
2022-09-15T05:57:02.411Z,13.00
2022-09-15T06:07:04.344Z,13.10
2022-09-15T06:17:07.609Z,13.30
2022-09-15T06:27:09.496Z,13.30
2022-09-15T06:37:12.775Z,13.40
2022-09-15T06:47:15.263Z,13.50
2022-09-15T06:57:18.548Z,13.60
2022-09-15T07:07:20.419Z,13.90
2022-09-15T07:17:23.946Z,14.10
2022-09-15T07:27:25.842Z,14.30
2022-09-15T07:37:29.118Z,14.40
2022-09-15T07:47:31.025Z,14.50
2022-09-15T07:57:34.290Z,14.70
2022-09-15T08:07:36.208Z,15.00
2022-09-15T08:17:39.611Z,15.10
2022-09-15T08:27:41.506Z,15.10
2022-09-15T08:37:45.166Z,15.20
2022-09-15T08:47:52.510Z,15.40
2022-09-15T08:57:56.001Z,15.70
2022-09-15T09:08:22.214Z,16.00
2022-09-15T09:19:03.352Z,16.30
2022-09-15T09:29:12.105Z,16.40
2022-09-15T09:39:15.761Z,16.70
2022-09-15T09:49:22.715Z,16.90
2022-09-15T09:59:40.185Z,16.90
2022-09-15T10:09:50.265Z,17.20
2022-09-15T10:19:56.190Z,17.20
2022-09-15T10:30:12.269Z,17.20
2022-09-15T10:40:30.927Z,17.50
2022-09-15T10:50:45.053Z,17.90
2022-09-15T11:01:05.182Z,18.80
2022-09-15T11:11:14.923Z,19.30
2022-09-15T11:21:27.657Z,19.30
2022-09-15T11:31:33.429Z,19.20
2022-09-15T11:41:43.022Z,19.70
2022-09-15T11:51:52.534Z,19.80
2022-09-15T12:02:03.845Z,19.60
2022-09-15T12:12:10.982Z,19.40
2022-09-15T12:22:21.214Z,19.10
2022-09-15T12:32:25.708Z,18.90
2022-09-15T12:42:31.220Z,18.90
2022-09-15T12:52:44.319Z,19.30
2022-09-15T13:02:49.444Z,19.10
2022-09-15T13:13:07.541Z,19.10
2022-09-15T13:23:14.380Z,19.00
2022-09-15T13:44:37.357Z,18.70
2022-09-15T13:55:09.453Z,18.70
2022-09-15T14:05:13.938Z,18.60
2022-09-15T14:15:20.889Z,18.30
2022-09-15T14:25:24.903Z,18.50
2022-09-15T14:35:30.232Z,19.20
2022-09-15T14:46:01.211Z,20.00
2022-09-15T14:56:08.613Z,20.00
2022-09-15T15:06:33.060Z,19.40
2022-09-15T15:16:35.419Z,19.40
2022-09-15T15:26:41.425Z,19.30
2022-09-15T15:36:43.378Z,19.00
2022-09-15T15:46:51.855Z,18.80
2022-09-15T15:56:54.244Z,18.50
2022-09-15T16:06:57.574Z,18.40
2022-09-15T16:16:59.468Z,18.30
2022-09-15T16:27:02.755Z,18.20
2022-09-15T16:37:04.754Z,18.10
2022-09-15T16:47:08.046Z,18.00
2022-09-15T16:57:09.994Z,17.60
2022-09-15T17:07:13.529Z,17.60
2022-09-15T17:17:23.666Z,17.50
2022-09-15T17:27:27.028Z,17.40
2022-09-15T17:37:29.009Z,17.30
2022-09-15T17:47:32.437Z,17.20
2022-09-15T17:57:35.608Z,17.10
2022-09-15T18:07:38.934Z,16.90
2022-09-15T18:17:40.931Z,16.80
2022-09-15T18:27:44.531Z,16.70
2022-09-15T18:49:09.302Z,16.30
2022-09-15T18:59:11.246Z,16.10
2022-09-15T19:09:14.497Z,16.00
2022-09-15T19:19:16.510Z,15.80
2022-09-15T19:29:19.912Z,15.70
2022-09-15T19:39:21.884Z,15.70
2022-09-15T19:49:25.480Z,15.90
2022-09-15T19:59:31.849Z,15.90
2022-09-15T20:09:36.099Z,16.00
2022-09-15T20:19:38.033Z,16.00
2022-09-15T20:29:41.506Z,16.00
2022-09-15T20:39:44.090Z,15.90
2022-09-15T20:49:47.443Z,15.80
2022-09-15T20:59:49.376Z,15.70
2022-09-15T21:09:52.639Z,15.50
2022-09-15T21:19:54.609Z,15.50
2022-09-15T21:29:58.204Z,15.40
2022-09-15T21:40:00.225Z,15.40
2022-09-15T21:50:03.916Z,15.30
2022-09-15T22:00:07.013Z,15.30
2022-09-15T22:10:10.833Z,15.10
2022-09-15T22:20:12.803Z,14.90
2022-09-15T22:30:16.234Z,14.60
2022-09-15T22:40:18.195Z,14.60
2022-09-15T22:50:21.586Z,14.40
2022-09-15T23:00:24.060Z,14.30
2022-09-15T23:10:27.450Z,14.20
2022-09-15T23:20:29.379Z,14.00
2022-09-15T23:30:32.673Z,13.80
2022-09-15T23:40:34.622Z,13.70
2022-09-15T23:50:38.798Z,13.60
